createdAt,value
2023-03-13T00:00:30.421Z,99346.78
2023-03-13T00:02:57.287Z,99340.56
2023-03-13T00:05:23.931Z,99336.53
2023-03-13T00:07:50.628Z,99334.22
2023-03-13T00:10:19.083Z,99330.94
2023-03-13T00:12:45.778Z,99331.06
2023-03-13T00:15:12.800Z,99329.78
2023-03-13T00:17:47.070Z,99317.38
2023-03-13T00:20:16.010Z,99321.34
2023-03-13T00:22:45.971Z,99319.69
2023-03-13T00:25:21.972Z,99317.00
2023-03-13T00:27:49.516Z,99317.22
2023-03-13T00:30:22.293Z,99310.16
2023-03-13T00:32:49.154Z,99307.19
2023-03-13T00:35:20.208Z,99292.97
2023-03-13T00:37:49.819Z,99291.00
2023-03-13T00:40:20.231Z,99295.69
2023-03-13T00:42:46.874Z,99292.03
2023-03-13T00:45:13.576Z,99293.53
2023-03-13T00:47:45.517Z,99294.38
2023-03-13T00:50:12.390Z,99290.03
2023-03-13T00:52:52.211Z,99278.16
2023-03-13T00:55:19.077Z,99268.28
2023-03-13T00:57:47.211Z,99258.94
2023-03-13T01:00:22.977Z,99252.56
2023-03-13T01:02:49.704Z,99256.56
2023-03-13T01:05:19.493Z,99247.00
2023-03-13T01:07:46.214Z,99246.72
2023-03-13T01:10:18.939Z,99242.53
2023-03-13T01:12:45.744Z,99238.16
2023-03-13T01:15:18.142Z,99235.00
2023-03-13T01:17:47.394Z,99241.50
2023-03-13T01:20:19.437Z,99232.47
2023-03-13T01:22:49.241Z,99230.66
2023-03-13T01:25:38.386Z,99230.94
2023-03-13T01:28:05.414Z,99227.50
2023-03-13T01:30:32.330Z,99223.94
2023-03-13T01:32:59.083Z,99221.59
2023-03-13T01:35:25.841Z,99219.59
2023-03-13T01:37:52.505Z,99221.13
2023-03-13T01:40:19.471Z,99209.78
2023-03-13T01:43:00.103Z,99203.59
2023-03-13T01:46:05.550Z,99197.22
2023-03-13T01:48:45.331Z,99189.53
2023-03-13T01:51:25.750Z,99196.03
2023-03-13T01:54:21.179Z,99189.53
2023-03-13T01:57:21.893Z,99179.47
2023-03-13T02:00:04.417Z,99174.13
2023-03-13T02:02:31.842Z,99161.91
2023-03-13T02:05:09.355Z,99156.56
2023-03-13T02:07:54.674Z,99152.84
2023-03-13T02:10:23.620Z,99145.34
2023-03-13T02:12:52.405Z,99149.00
2023-03-13T02:15:25.979Z,99147.34
2023-03-13T02:17:54.852Z,99140.97
2023-03-13T02:20:23.962Z,99133.09
2023-03-13T02:23:29.523Z,99125.56
2023-03-13T02:25:57.047Z,99116.69
2023-03-13T02:28:33.795Z,99113.38
2023-03-13T02:31:02.225Z,99101.97
2023-03-13T02:33:45.513Z,99091.94
2023-03-13T02:36:17.326Z,99088.44
2023-03-13T02:39:14.198Z,99076.38
2023-03-13T02:41:50.251Z,99070.19
2023-03-13T02:44:16.987Z,99064.47
2023-03-13T02:46:52.546Z,99066.66
2023-03-13T02:49:32.880Z,99062.16
2023-03-13T02:52:49.801Z,99053.44
2023-03-13T02:55:30.071Z,99052.25
2023-03-13T02:57:57.030Z,99044.56
2023-03-13T03:00:27.650Z,99036.53
2023-03-13T03:02:55.413Z,99032.34
2023-03-13T03:05:24.772Z,99029.16
2023-03-13T03:07:54.606Z,99018.47
2023-03-13T03:10:27.601Z,99026.66
2023-03-13T03:12:54.223Z,99017.63
2023-03-13T03:15:22.665Z,99009.75
2023-03-13T03:17:49.318Z,99010.56
2023-03-13T03:20:16.122Z,99001.72
2023-03-13T03:22:46.134Z,99005.38
2023-03-13T03:25:13.144Z,98995.00
2023-03-13T03:27:45.991Z,98985.66
2023-03-13T03:30:13.132Z,98978.13
2023-03-13T03:32:41.987Z,98977.63
2023-03-13T03:35:11.004Z,98973.44
2023-03-13T03:37:44.068Z,98965.22
2023-03-13T03:40:12.509Z,98971.59
2023-03-13T03:42:42.333Z,98963.41
2023-03-13T03:45:09.624Z,98957.38
2023-03-13T03:47:36.287Z,98954.84
2023-03-13T03:50:04.361Z,98944.66
2023-03-13T03:52:36.388Z,98940.47
2023-03-13T03:55:03.166Z,98925.25
2023-03-13T03:57:33.132Z,98922.22
2023-03-13T03:59:59.860Z,98921.56
2023-03-13T04:02:26.516Z,98907.34
2023-03-13T04:04:58.800Z,98899.47
2023-03-13T04:07:26.319Z,98894.63
2023-03-13T04:09:53.051Z,98883.59
2023-03-13T04:12:24.062Z,98882.44
2023-03-13T04:14:50.716Z,98868.84
2023-03-13T04:17:27.044Z,98860.81
2023-03-13T04:19:53.782Z,98847.78
2023-03-13T04:22:23.476Z,98833.72
2023-03-13T04:24:53.305Z,98840.22
2023-03-13T04:27:20.034Z,98824.81
2023-03-13T04:29:46.962Z,98828.53
2023-03-13T04:32:13.955Z,98813.13
2023-03-13T04:34:43.673Z,98815.09
2023-03-13T04:37:10.536Z,98804.91
2023-03-13T04:39:37.227Z,98795.16
2023-03-13T04:42:07.416Z,98784.97
2023-03-13T04:44:43.613Z,98793.16
2023-03-13T04:47:12.234Z,98775.63
2023-03-13T04:49:44.413Z,98776.94
2023-03-13T04:52:11.593Z,98770.09
2023-03-13T04:54:39.646Z,98767.03
2023-03-13T04:57:06.513Z,98753.34
2023-03-13T04:59:33.195Z,98755.19
2023-03-13T05:01:59.862Z,98742.66
2023-03-13T05:04:26.560Z,98736.91
2023-03-13T05:06:53.229Z,98729.91
2023-03-13T05:09:19.989Z,98722.06
2023-03-13T05:11:59.095Z,98707.13
2023-03-13T05:14:26.203Z,98703.63
2023-03-13T05:16:52.809Z,98686.91
2023-03-13T05:19:19.670Z,98679.69
2023-03-13T05:21:46.456Z,98674.88
2023-03-13T05:24:13.069Z,98675.53
2023-03-13T05:26:43.954Z,98667.66
2023-03-13T05:29:10.712Z,98659.78
2023-03-13T05:31:37.352Z,98647.78
2023-03-13T05:34:06.720Z,98630.53
2023-03-13T05:36:33.686Z,98635.88
2023-03-13T05:39:00.548Z,98621.84
2023-03-13T05:41:27.251Z,98622.31
2023-03-13T05:43:53.971Z,98617.16
2023-03-13T05:46:20.749Z,98611.28
2023-03-13T05:48:47.571Z,98603.75
2023-03-13T05:51:14.274Z,98595.22
2023-03-13T05:53:49.692Z,98586.84
2023-03-13T05:56:16.325Z,98581.31
2023-03-13T05:58:48.756Z,98589.19
2023-03-13T06:01:15.543Z,98572.28
2023-03-13T06:03:45.239Z,98575.13
2023-03-13T06:06:11.939Z,98561.38
2023-03-13T06:08:38.628Z,98559.19
2023-03-13T06:11:05.557Z,98553.66
2023-03-13T06:13:32.301Z,98554.66
2023-03-13T06:15:59.952Z,98546.78
2023-03-13T06:18:29.675Z,98539.63
2023-03-13T06:21:01.535Z,98537.75
2023-03-13T06:23:35.456Z,98534.25
2023-03-13T06:26:02.171Z,98515.00
2023-03-13T06:28:29.171Z,98516.66
2023-03-13T06:31:01.454Z,98504.09
2023-03-13T06:33:34.658Z,98499.88
2023-03-13T06:36:03.115Z,98490.00
2023-03-13T06:38:31.566Z,98494.34
2023-03-13T06:40:59.327Z,98486.94
2023-03-13T06:43:30.095Z,98484.25
2023-03-13T06:45:59.959Z,98465.19
2023-03-13T06:48:29.351Z,98472.19
2023-03-13T06:50:56.607Z,98460.63
2023-03-13T06:53:23.477Z,98461.13
2023-03-13T06:55:53.040Z,98451.22
2023-03-13T06:58:31.738Z,98446.81
2023-03-13T07:01:12.709Z,98442.28
2023-03-13T07:03:52.209Z,98441.53
2023-03-13T07:06:19.383Z,98439.53
2023-03-13T07:08:49.714Z,98409.50
2023-03-13T07:11:16.610Z,98409.97
2023-03-13T07:13:43.731Z,98417.63
2023-03-13T07:16:16.659Z,98417.25
2023-03-13T07:18:44.813Z,98404.75
2023-03-13T07:21:12.948Z,98378.06
2023-03-13T07:34:32.518Z,98352.22
2023-03-13T07:36:59.288Z,98351.63
2023-03-13T07:39:28.569Z,98358.13
2023-03-13T07:55:20.079Z,98321.09
2023-03-13T07:57:46.741Z,98316.63
2023-03-13T08:00:16.452Z,98314.19
2023-03-13T08:02:46.191Z,98316.91
2023-03-13T08:05:13.032Z,98305.78
2023-03-13T08:07:43.427Z,98304.34
2023-03-13T08:10:11.183Z,98301.09
2023-03-13T08:12:37.825Z,98293.47
2023-03-13T08:15:05.246Z,98289.34
2023-03-13T08:17:33.617Z,98287.50
2023-03-13T08:20:00.290Z,98286.50
2023-03-13T08:22:26.920Z,98267.09
2023-03-13T08:24:59.772Z,98287.19
2023-03-13T08:27:32.850Z,98270.03
2023-03-13T08:29:59.514Z,98281.44
2023-03-13T08:32:26.182Z,98280.63
2023-03-13T08:34:52.829Z,98277.34
2023-03-13T08:37:19.640Z,98288.31
2023-03-13T08:39:46.425Z,98272.47
2023-03-13T08:42:14.319Z,98285.53
2023-03-13T08:44:44.710Z,98281.81
2023-03-13T08:47:11.428Z,98272.13
2023-03-13T08:49:45.271Z,98262.19
2023-03-13T08:52:12.004Z,98260.34
2023-03-13T08:54:38.723Z,98265.13
2023-03-13T08:57:05.427Z,98262.25
2023-03-13T08:59:35.221Z,98241.13
2023-03-13T09:02:03.061Z,98241.56
2023-03-13T09:04:31.933Z,98236.81
2023-03-13T09:06:58.915Z,98234.53
2023-03-13T09:09:25.566Z,98231.63
2023-03-13T09:11:54.826Z,98219.84
2023-03-13T09:14:21.589Z,98233.31
2023-03-13T09:16:51.199Z,98218.59
2023-03-13T09:19:18.008Z,98218.38
2023-03-13T09:21:46.478Z,98227.94
2023-03-13T09:24:13.214Z,98204.09
2023-03-13T09:26:46.470Z,98210.50
2023-03-13T09:29:15.742Z,98223.97
2023-03-13T09:31:42.659Z,98214.63
2023-03-13T09:34:15.403Z,98218.34
2023-03-13T09:36:45.222Z,98206.31
2023-03-13T09:39:12.016Z,98200.09
2023-03-13T09:42:07.916Z,98192.00
2023-03-13T09:45:16.532Z,98189.09
2023-03-13T09:48:02.865Z,98196.09
2023-03-13T09:50:44.835Z,98193.81
2023-03-13T09:53:33.198Z,98195.25
2023-03-13T09:56:05.260Z,98193.56
2023-03-13T09:58:35.606Z,98197.91
2023-03-13T10:01:06.227Z,98202.03
2023-03-13T10:04:33.120Z,98206.38
2023-03-13T10:06:59.847Z,98204.28
2023-03-13T10:09:37.658Z,98203.63
2023-03-13T10:12:12.390Z,98211.34
2023-03-13T10:14:47.246Z,98205.09
2023-03-13T10:17:31.317Z,98216.09
2023-03-13T10:20:28.939Z,98209.84
2023-03-13T10:24:00.276Z,98200.13
2023-03-13T10:26:37.675Z,98214.84
2023-03-13T10:29:25.118Z,98222.50
2023-03-13T10:32:10.518Z,98220.22
2023-03-13T10:35:06.040Z,98218.16
2023-03-13T10:37:43.992Z,98230.78
2023-03-13T10:40:28.701Z,98219.59
2023-03-13T10:43:26.319Z,98214.34
2023-03-13T10:45:53.899Z,98229.69
2023-03-13T10:48:36.536Z,98231.28
2023-03-13T10:51:03.268Z,98227.75
2023-03-13T10:53:29.992Z,98229.31
2023-03-13T10:56:16.083Z,98243.03
2023-03-13T10:58:53.086Z,98246.97
2023-03-13T11:01:36.068Z,98248.00
2023-03-13T11:04:38.251Z,98234.38
2023-03-13T11:07:34.820Z,98234.84
2023-03-13T11:10:29.961Z,98191.66
2023-03-13T11:12:59.104Z,98229.53
2023-03-13T11:15:38.313Z,98229.94
2023-03-13T11:18:22.370Z,98236.66
2023-03-13T11:20:50.094Z,98229.34
2023-03-13T11:23:37.233Z,98235.53
2023-03-13T11:26:29.745Z,98218.56
2023-03-13T11:29:36.842Z,98237.81
2023-03-13T11:32:25.228Z,98240.38
2023-03-13T11:35:04.158Z,98236.50
2023-03-13T11:37:44.534Z,98222.00
2023-03-13T11:40:22.645Z,98211.94
2023-03-13T11:43:57.925Z,98212.84
2023-03-13T11:47:15.544Z,98210.38
2023-03-13T11:50:14.091Z,98216.75
2023-03-13T11:53:58.572Z,98207.06
2023-03-13T11:56:57.576Z,98190.78
2023-03-13T11:59:54.361Z,98193.66
2023-03-13T12:02:41.634Z,98192.66
2023-03-13T12:05:26.246Z,98190.88
2023-03-13T12:08:07.819Z,98203.91
2023-03-13T12:11:17.956Z,98208.25
2023-03-13T13:33:58.998Z,98152.06
2023-03-13T13:36:43.307Z,98144.03
2023-03-13T13:39:53.984Z,98133.44
2023-03-13T13:42:30.684Z,98139.28
2023-03-13T13:45:33.376Z,98127.75
2023-03-13T13:48:48.687Z,98115.06
2023-03-13T13:51:19.627Z,98119.53
2023-03-13T13:54:05.716Z,98132.16
2023-03-13T13:57:22.943Z,98101.75
2023-03-13T14:00:24.160Z,98103.97
2023-03-13T14:02:55.490Z,98102.22
2023-03-13T14:05:32.387Z,98113.97
2023-03-13T14:08:20.266Z,98093.38
2023-03-13T14:11:07.710Z,98085.44
2023-03-13T14:13:34.629Z,98087.56
2023-03-13T14:16:25.632Z,98074.53
2023-03-13T14:18:53.538Z,98074.69
2023-03-13T14:21:25.390Z,98064.84
2023-03-13T14:23:53.285Z,98068.19
2023-03-13T14:26:28.949Z,98075.03
2023-03-13T14:29:06.655Z,98054.31
2023-03-13T14:31:39.200Z,98067.78
2023-03-13T14:34:12.900Z,98062.44
2023-03-13T14:37:14.833Z,98058.16
2023-03-13T14:39:48.602Z,98062.53
2023-03-13T14:42:20.142Z,98031.41
2023-03-13T14:44:50.347Z,98056.16
2023-03-13T14:47:31.411Z,98049.00
2023-03-13T14:50:10.129Z,98039.41
2023-03-13T14:52:42.265Z,98038.63
2023-03-13T14:55:21.789Z,98062.50
2023-03-13T14:58:29.393Z,98058.47
2023-03-13T15:01:15.751Z,98051.56
2023-03-13T15:03:48.727Z,98061.81
2023-03-13T15:06:23.876Z,98052.22
2023-03-13T15:09:10.597Z,98039.91
2023-03-13T15:12:02.878Z,98042.03
2023-03-13T15:14:54.219Z,98043.56
2023-03-13T15:17:26.599Z,98038.72
2023-03-13T15:19:59.547Z,98055.94
2023-03-13T15:22:32.792Z,98038.19
2023-03-13T15:25:07.946Z,98042.44
2023-03-13T15:27:35.879Z,98053.75
2023-03-13T15:30:03.041Z,98054.31
2023-03-13T15:32:37.515Z,98060.47
2023-03-13T15:35:23.136Z,98062.84
2023-03-13T15:37:51.684Z,98065.66
2023-03-13T15:40:20.152Z,98049.06
2023-03-13T15:42:47.361Z,98045.22
2023-03-13T15:45:14.166Z,98050.53
2023-03-13T15:47:45.935Z,98037.69
2023-03-13T15:50:18.773Z,98046.41
2023-03-13T15:52:55.424Z,98040.38
2023-03-13T15:55:29.065Z,98033.19
2023-03-13T15:57:56.098Z,98049.81
2023-03-13T16:00:26.438Z,98050.50
2023-03-13T16:02:53.386Z,98040.03
2023-03-13T16:05:20.501Z,98037.56
2023-03-13T16:07:47.394Z,98046.75
2023-03-13T16:10:43.171Z,98034.28
2023-03-13T16:13:10.342Z,98026.75
2023-03-13T16:15:37.820Z,98031.31
2023-03-13T16:18:06.560Z,98035.69
2023-03-13T16:20:46.882Z,98026.00
2023-03-13T16:23:15.305Z,98039.19
2023-03-13T16:25:49.314Z,98027.31
2023-03-13T16:28:16.582Z,98030.94
2023-03-13T16:31:12.979Z,98024.91
2023-03-13T16:33:41.572Z,98016.34
2023-03-13T16:36:17.986Z,98017.50
2023-03-13T16:38:54.685Z,98040.09
2023-03-13T16:41:25.314Z,98011.75
2023-03-13T16:43:56.621Z,98023.38
2023-03-13T16:47:04.435Z,98034.53
2023-03-13T16:49:42.008Z,98032.09
2023-03-13T16:52:17.892Z,98041.59
2023-03-13T16:54:47.971Z,98029.66
2023-03-13T16:57:24.061Z,98027.22
2023-03-13T16:59:52.399Z,98022.00
2023-03-13T17:02:20.945Z,98029.25
2023-03-13T17:04:54.184Z,98035.69
2023-03-13T17:07:30.953Z,98021.16
2023-03-13T17:09:57.836Z,98034.94
2023-03-13T17:12:27.404Z,98040.59
2023-03-13T17:14:54.310Z,98015.75
2023-03-13T17:17:23.452Z,98027.38
2023-03-13T17:19:50.335Z,98031.66
2023-03-13T17:22:18.916Z,98044.75
2023-03-13T17:24:49.306Z,98045.78
2023-03-13T17:27:21.809Z,98024.47
2023-03-13T17:29:50.911Z,98026.34
2023-03-13T17:32:17.805Z,98024.63
2023-03-13T17:34:52.181Z,98020.03
2023-03-13T17:37:21.648Z,98038.66
2023-03-13T17:39:51.541Z,98036.63
2023-03-13T17:42:19.023Z,98025.97
2023-03-13T17:44:48.994Z,98038.16
2023-03-13T17:47:26.487Z,98040.69
2023-03-13T17:49:53.271Z,98042.63
2023-03-13T17:52:22.937Z,98051.88
2023-03-13T17:54:51.042Z,98044.00
2023-03-13T17:57:29.072Z,98041.06
2023-03-13T17:59:55.822Z,98041.59
2023-03-13T18:02:26.268Z,98034.00
2023-03-13T18:04:56.747Z,98057.22
2023-03-13T18:07:32.796Z,98043.31
2023-03-13T18:09:59.608Z,98038.38
2023-03-13T18:12:29.613Z,98010.84
2023-03-13T18:14:56.236Z,98031.63
2023-03-13T18:17:27.697Z,98009.94
2023-03-13T18:19:54.352Z,98026.81
2023-03-13T18:22:21.604Z,98051.59
2023-03-13T18:24:56.994Z,98027.63
2023-03-13T18:27:32.963Z,98037.63
2023-03-13T18:29:59.696Z,98025.44
2023-03-13T18:32:31.457Z,98018.03
2023-03-13T18:35:00.168Z,98033.34
2023-03-13T18:37:35.632Z,98029.94
2023-03-13T18:40:04.358Z,98021.59
2023-03-13T18:42:31.097Z,98026.88
2023-03-13T18:44:58.893Z,98020.50
2023-03-13T18:47:28.455Z,97997.38
2023-03-13T18:49:55.535Z,98014.78
2023-03-13T18:52:24.558Z,98020.19
2023-03-13T18:54:51.215Z,97998.47
2023-03-13T18:57:22.163Z,98013.88
2023-03-13T19:36:17.567Z,98027.25
2023-03-13T20:09:09.250Z,98041.03
2023-03-13T20:33:16.105Z,98034.97
2023-03-13T20:49:11.385Z,98003.28
2023-03-13T21:21:29.902Z,97999.91
2023-03-13T22:01:59.415Z,97968.38
2023-03-13T22:18:31.519Z,97977.09
2023-03-13T22:21:00.154Z,97982.00
2023-03-13T22:23:27.098Z,97991.16
2023-03-13T22:25:59.416Z,97992.72
2023-03-13T22:28:27.371Z,97985.28
2023-03-13T22:30:54.258Z,97976.97
2023-03-13T22:33:21.288Z,97985.91
2023-03-13T22:35:54.544Z,98001.41
2023-03-13T22:38:22.432Z,97988.38
2023-03-13T22:41:02.993Z,97990.22
2023-03-13T22:43:30.687Z,97988.19
2023-03-13T22:45:59.871Z,97979.47
2023-03-13T22:48:27.794Z,97976.16
2023-03-13T22:51:13.138Z,97983.03
2023-03-13T22:53:43.642Z,97980.38
2023-03-13T22:56:12.411Z,97980.97
2023-03-13T22:58:41.990Z,97975.16
2023-03-13T23:01:13.687Z,97972.66
2023-03-13T23:03:44.964Z,97970.59
2023-03-13T23:06:20.923Z,97967.38
2023-03-13T23:08:47.948Z,97958.56
2023-03-13T23:11:15.789Z,97952.34
2023-03-13T23:13:45.458Z,97950.09
2023-03-13T23:16:13.829Z,97934.13
2023-03-13T23:18:44.645Z,97933.75
2023-03-13T23:21:14.979Z,97928.59
2023-03-13T23:23:44.869Z,97938.16
2023-03-13T23:26:15.934Z,97923.25
2023-03-13T23:28:45.715Z,97932.09
2023-03-13T23:31:18.408Z,97941.22
2023-03-13T23:33:51.273Z,97921.84
2023-03-13T23:36:19.775Z,97920.38
2023-03-13T23:38:53.507Z,97911.69
2023-03-13T23:41:21.741Z,97920.41
2023-03-13T23:43:48.494Z,97908.25
2023-03-13T23:46:23.408Z,97905.78
2023-03-13T23:48:56.514Z,97895.00
2023-03-13T23:51:25.117Z,97900.59
2023-03-13T23:53:52.187Z,97884.88
2023-03-13T23:56:19.488Z,97891.53
2023-03-13T23:58:46.144Z,97891.72
